Time;durP1;ratioP1;P1;durP2;ratioP2;P2;SDS_P1;SDS_P2;PMS_P1;PMS_P2;Temp;Humidity;BMP_temperature;BMP_pressure;BME280_temperature;BME280_humidity;BME280_pressure;Samples;Min_cycle;Max_cycle;Signal;HPM_P1;HPM_P2
2023/03/07 00:00:18;;;;;;;;;;;;;;;12.48;39.26;94310.72;5033686;28;20011;-65
2023/03/07 00:02:48;;;;;;;;;;;;;;;12.38;39.44;94326.63;5032894;28;19972;-65
2023/03/07 00:05:15;;;;;;;;;;;;;;;12.48;39.19;94325.72;5033837;28;20456;-64
2023/03/07 00:07:42;;;;;;;;;;;;;;;12.58;38.93;94331.63;5029992;28;19971;-64
2023/03/07 00:10:09;;;;;;;;;;;;;;;12.76;38.67;94323.00;5032956;28;19921;-66
2023/03/07 00:12:36;;;;;;;;;;;;;;;12.55;39.34;94320.91;5032257;28;19921;-63
2023/03/07 00:15:03;;;;;;;;;;;;;;;12.34;39.07;94283.56;5032522;28;20007;-66
2023/03/07 00:17:30;;;;;;;;;;;;;;;11.78;40.14;94316.72;5029076;28;19932;-64
2023/03/07 00:19:56;;;;;;;;;;;;;;;12.36;39.40;94327.94;5032447;28;20328;-64
2023/03/07 00:22:23;;;;;;;;;;;;;;;12.53;39.08;94318.56;5029318;28;19947;-65
2023/03/07 00:24:50;;;;;;;;;;;;;;;12.49;39.03;94317.56;5031218;28;19924;-66
2023/03/07 00:27:16;;;;;;;;;;;;;;;12.29;39.71;94311.72;5031594;28;20454;-65
2023/03/07 00:29:46;;;;;;;;;;;;;;;11.95;39.67;94290.84;5030973;28;19983;-65
2023/03/07 00:32:15;;;;;;;;;;;;;;;11.91;40.10;94293.22;5030274;28;20331;-65
2023/03/07 00:34:41;;;;;;;;;;;;;;;12.02;40.17;94278.91;5032070;28;20328;-65
2023/03/07 00:37:08;;;;;;;;;;;;;;;11.75;40.50;94291.78;5028581;28;19929;-64
2023/03/07 00:39:35;;;;;;;;;;;;;;;11.77;40.23;94299.41;5029301;28;19994;-65
2023/03/07 00:42:02;;;;;;;;;;;;;;;11.90;40.49;94288.25;5029623;28;19935;-64
2023/03/07 00:44:28;;;;;;;;;;;;;;;12.01;39.58;94271.31;5033802;28;19979;-64
2023/03/07 00:46:55;;;;;;;;;;;;;;;11.99;40.23;94292.59;5033706;28;19932;-64
2023/03/07 00:49:22;;;;;;;;;;;;;;;11.53;40.72;94314.28;5030780;28;19925;-64
2023/03/07 00:51:49;;;;;;;;;;;;;;;12.03;39.79;94282.34;5029330;28;20351;-65
2023/03/07 00:54:15;;;;;;;;;;;;;;;11.68;40.63;94285.28;5030525;28;19941;-63
2023/03/07 00:56:42;;;;;;;;;;;;;;;11.62;40.62;94271.44;5031241;28;19959;-64
2023/03/07 00:59:09;;;;;;;;;;;;;;;11.47;39.81;94268.16;5038137;28;19944;-64
2023/03/07 01:01:36;;;;;;;;;;;;;;;11.93;39.74;94279.81;5031238;28;20344;-65
2023/03/07 01:04:03;;;;;;;;;;;;;;;11.64;39.94;94306.03;5031855;28;19941;-65
2023/03/07 01:06:31;;;;;;;;;;;;;;;11.91;39.68;94279.31;5031291;28;19940;-64
2023/03/07 01:08:59;;;;;;;;;;;;;;;12.03;39.49;94266.56;5031762;28;19939;-63
2023/03/07 01:11:26;;;;;;;;;;;;;;;11.18;40.77;94287.25;5027906;28;19947;-63
2023/03/07 01:14:00;;;;;;;;;;;;;;;10.98;41.60;94310.97;5031258;28;20412;-65
2023/03/07 01:16:28;;;;;;;;;;;;;;;11.65;40.40;94291.09;5040957;28;19932;-65
2023/03/07 01:18:57;;;;;;;;;;;;;;;12.11;39.75;94279.09;5031292;28;19941;-64
2023/03/07 01:21:26;;;;;;;;;;;;;;;12.14;39.68;94270.66;5029664;28;20032;-64
2023/03/07 01:23:54;;;;;;;;;;;;;;;12.26;39.21;94272.91;5029987;28;19991;-64
2023/03/07 01:26:31;;;;;;;;;;;;;;;12.21;39.13;94268.47;5037530;28;20036;-64
2023/03/07 01:28:59;;;;;;;;;;;;;;;12.45;38.88;94264.00;5029598;28;19963;-64
2023/03/07 01:31:29;;;;;;;;;;;;;;;12.67;38.75;94251.09;5035869;28;20008;-64
2023/03/07 01:33:57;;;;;;;;;;;;;;;12.57;38.84;94230.19;5035733;28;19979;-65
2023/03/07 01:36:28;;;;;;;;;;;;;;;12.48;38.75;94247.66;5030087;28;19921;-63
2023/03/07 01:39:05;;;;;;;;;;;;;;;12.30;38.51;94256.28;5035892;28;19929;-63
2023/03/07 01:41:36;;;;;;;;;;;;;;;12.29;38.77;94262.63;5029799;28;20020;-64
2023/03/07 01:44:16;;;;;;;;;;;;;;;12.21;38.87;94256.13;5029832;28;19921;-62
2023/03/07 01:46:52;;;;;;;;;;;;;;;12.08;38.85;94248.13;5029371;28;20020;-65
2023/03/07 01:49:21;;;;;;;;;;;;;;;12.34;38.30;94256.50;5028997;28;19931;-63
2023/03/07 01:52:20;;;;;;;;;;;;;;;12.08;39.24;94269.13;5016168;28;19925;-64
2023/03/07 01:54:53;;;;;;;;;;;;;;;12.08;39.21;94256.00;5024185;28;19970;-65
2023/03/07 01:57:23;;;;;;;;;;;;;;;12.09;39.68;94247.09;5028628;28;19974;-64
2023/03/07 01:59:53;;;;;;;;;;;;;;;12.16;39.43;94256.19;5045442;28;19943;-63
2023/03/07 02:02:21;;;;;;;;;;;;;;;12.25;39.35;94258.97;5028776;28;19957;-64
2023/03/07 02:04:57;;;;;;;;;;;;;;;12.25;39.50;94253.72;5030529;28;19939;-64
2023/03/07 02:07:27;;;;;;;;;;;;;;;12.15;39.48;94249.38;5033194;28;19953;-63
2023/03/07 02:09:55;;;;;;;;;;;;;;;12.27;39.63;94253.44;5028180;28;20326;-64
2023/03/07 02:12:22;;;;;;;;;;;;;;;12.15;39.26;94259.09;5028086;28;19943;-65
2023/03/07 02:14:50;;;;;;;;;;;;;;;12.35;39.29;94258.88;5026732;28;19942;-63
2023/03/07 02:17:17;;;;;;;;;;;;;;;12.29;39.09;94254.72;5028602;28;19938;-65
2023/03/07 02:20:04;;;;;;;;;;;;;;;12.21;39.52;94248.25;5045435;28;20094;-64
2023/03/07 02:22:30;;;;;;;;;;;;;;;12.01;39.75;94252.94;5016248;28;19955;-64
2023/03/07 02:25:00;;;;;;;;;;;;;;;11.95;39.81;94228.59;5029212;28;19943;-64
2023/03/07 02:27:30;;;;;;;;;;;;;;;12.26;39.48;94242.19;5031993;28;19943;-63
2023/03/07 02:29:57;;;;;;;;;;;;;;;12.35;39.35;94242.31;5028856;28;19942;-63
2023/03/07 02:32:24;;;;;;;;;;;;;;;12.34;39.16;94241.53;5026951;28;20316;-67
2023/03/07 02:34:51;;;;;;;;;;;;;;;12.26;39.63;94231.66;5033089;28;19947;-65
2023/03/07 02:37:24;;;;;;;;;;;;;;;12.23;39.29;94229.59;5028589;28;19944;-64
2023/03/07 02:39:52;;;;;;;;;;;;;;;12.35;39.30;94237.06;5028202;28;19955;-63
2023/03/07 02:42:21;;;;;;;;;;;;;;;12.33;39.82;94234.72;5027971;28;19928;-64
2023/03/07 02:44:58;;;;;;;;;;;;;;;12.25;39.56;94243.22;5025410;28;19931;-65
2023/03/07 02:47:27;;;;;;;;;;;;;;;12.35;40.02;94248.38;5027647;28;19925;-64
2023/03/07 02:49:54;;;;;;;;;;;;;;;12.26;39.79;94260.56;5028699;28;20011;-64
2023/03/07 02:52:22;;;;;;;;;;;;;;;11.52;41.11;94265.47;5025398;28;19928;-64
2023/03/07 02:54:49;;;;;;;;;;;;;;;11.79;40.80;94239.53;5028251;28;19925;-63
2023/03/07 02:57:16;;;;;;;;;;;;;;;12.15;40.26;94238.09;5027471;28;20380;-63
2023/03/07 02:59:42;;;;;;;;;;;;;;;12.39;39.87;94238.06;5027937;28;20058;-64
2023/03/07 03:02:09;;;;;;;;;;;;;;;11.96;40.29;94245.91;5027889;28;20016;-64
2023/03/07 03:04:36;;;;;;;;;;;;;;;11.42;41.35;94265.56;5027518;28;19950;-64
2023/03/07 03:07:03;;;;;;;;;;;;;;;11.32;41.50;94255.16;5024383;28;20383;-64
2023/03/07 03:09:30;;;;;;;;;;;;;;;12.03;40.43;94253.44;5028330;28;20311;-64
2023/03/07 03:11:57;;;;;;;;;;;;;;;12.16;40.19;94256.19;5027401;28;19956;-64
2023/03/07 03:14:27;;;;;;;;;;;;;;;11.82;40.89;94252.09;5026041;28;19936;-64
2023/03/07 03:16:54;;;;;;;;;;;;;;;12.19;40.04;94244.34;5027710;28;19947;-64
2023/03/07 03:19:21;;;;;;;;;;;;;;;12.32;39.83;94238.41;5031106;28;20016;-63
2023/03/07 03:21:48;;;;;;;;;;;;;;;12.36;39.77;94255.16;5031022;28;20051;-65
2023/03/07 03:24:15;;;;;;;;;;;;;;;11.84;40.50;94244.75;5028425;28;19972;-64
2023/03/07 03:26:44;;;;;;;;;;;;;;;11.60;41.60;94241.28;5030228;28;19928;-64
2023/03/07 03:29:11;;;;;;;;;;;;;;;12.15;40.17;94238.88;5027803;28;19947;-63
2023/03/07 03:31:38;;;;;;;;;;;;;;;12.44;40.00;94236.16;5027044;28;19949;-65
2023/03/07 03:34:06;;;;;;;;;;;;;;;11.94;40.29;94247.25;5028572;28;20366;-64
2023/03/07 03:36:33;;;;;;;;;;;;;;;11.65;41.42;94239.41;5030624;28;20023;-64
2023/03/07 03:39:08;;;;;;;;;;;;;;;12.15;40.52;94224.97;5019806;28;19946;-65
2023/03/07 03:41:34;;;;;;;;;;;;;;;12.27;40.49;94238.47;5029404;28;19974;-64
2023/03/07 03:44:01;;;;;;;;;;;;;;;12.23;39.96;94261.09;5028172;28;19950;-64
2023/03/07 03:46:30;;;;;;;;;;;;;;;12.35;39.65;94269.38;5024192;28;19943;-65
2023/03/07 03:48:58;;;;;;;;;;;;;;;12.38;39.93;94268.81;5028305;28;19999;-63
2023/03/07 03:51:26;;;;;;;;;;;;;;;12.41;39.81;94262.97;5024966;28;20037;-63
2023/03/07 03:53:56;;;;;;;;;;;;;;;12.53;39.99;94255.50;5028668;28;19947;-63
2023/03/07 03:56:24;;;;;;;;;;;;;;;12.35;40.12;94263.34;5027358;28;19997;-63
2023/03/07 03:58:52;;;;;;;;;;;;;;;12.17;40.05;94267.50;5031546;28;19939;-64
2023/03/07 04:01:20;;;;;;;;;;;;;;;12.21;39.70;94258.75;5032754;28;19988;-64
2023/03/07 04:03:47;;;;;;;;;;;;;;;12.36;39.74;94239.41;5038069;28;19950;-65
2023/03/07 04:06:17;;;;;;;;;;;;;;;12.05;40.37;94260.00;5027013;28;20002;-67
2023/03/07 04:08:45;;;;;;;;;;;;;;;12.11;40.33;94256.25;5023723;28;19943;-63
2023/03/07 04:11:12;;;;;;;;;;;;;;;12.34;39.70;94267.81;5020036;28;20373;-65
2023/03/07 04:13:39;;;;;;;;;;;;;;;11.65;40.71;94276.16;5031065;28;19953;-65
2023/03/07 04:16:06;;;;;;;;;;;;;;;11.56;41.16;94261.25;5031871;28;19956;-66
2023/03/07 04:18:33;;;;;;;;;;;;;;;11.83;40.97;94240.53;5031227;28;19945;-63
2023/03/07 04:21:00;;;;;;;;;;;;;;;11.85;41.46;94249.72;5030793;28;19950;-65
2023/03/07 04:23:27;;;;;;;;;;;;;;;11.80;40.97;94256.84;5031177;28;19953;-65
2023/03/07 04:25:55;;;;;;;;;;;;;;;11.86;40.76;94255.75;5027210;28;20054;-65
2023/03/07 04:28:23;;;;;;;;;;;;;;;12.10;40.98;94272.28;5028385;28;19940;-64
2023/03/07 04:30:52;;;;;;;;;;;;;;;11.62;41.26;94281.13;5030965;28;19936;-64
2023/03/07 04:33:19;;;;;;;;;;;;;;;12.05;40.40;94267.88;5030934;28;20416;-64
2023/03/07 04:35:47;;;;;;;;;;;;;;;12.14;40.52;94268.03;5030111;28;20311;-64
2023/03/07 04:38:14;;;;;;;;;;;;;;;12.19;40.42;94270.59;5032555;28;19971;-64
2023/03/07 04:40:41;;;;;;;;;;;;;;;12.20;41.02;94266.94;5030655;28;19945;-64
2023/03/07 04:43:09;;;;;;;;;;;;;;;12.17;40.67;94278.00;5030113;28;20524;-64
2023/03/07 04:45:37;;;;;;;;;;;;;;;12.17;40.96;94272.75;5028234;28;20415;-65
2023/03/07 04:48:04;;;;;;;;;;;;;;;11.95;41.01;94280.34;5030272;28;20043;-64
2023/03/07 04:50:32;;;;;;;;;;;;;;;12.16;40.80;94281.66;5030138;28;19953;-65
2023/03/07 04:52:59;;;;;;;;;;;;;;;12.11;40.81;94289.63;5028136;28;19938;-63
2023/03/07 04:55:26;;;;;;;;;;;;;;;11.80;42.04;94283.09;5028085;28;20190;-65
2023/03/07 04:57:53;;;;;;;;;;;;;;;11.76;41.87;94288.13;5030704;28;20071;-65
2023/03/07 05:00:20;;;;;;;;;;;;;;;11.91;41.67;94289.81;5029137;28;19976;-63
2023/03/07 05:02:48;;;;;;;;;;;;;;;12.07;41.38;94293.84;5024148;28;19944;-65
2023/03/07 05:05:16;;;;;;;;;;;;;;;11.86;41.78;94295.13;5026678;28;19968;-64
2023/03/07 05:07:43;;;;;;;;;;;;;;;12.04;41.62;94289.94;5027479;28;20308;-64
2023/03/07 05:10:10;;;;;;;;;;;;;;;12.01;41.46;94287.06;5030096;28;20265;-64
2023/03/07 05:12:38;;;;;;;;;;;;;;;12.13;41.70;94288.25;5029582;28;20368;-64
2023/03/07 05:15:06;;;;;;;;;;;;;;;12.05;41.95;94291.50;5030213;28;20384;-65
2023/03/07 05:17:32;;;;;;;;;;;;;;;12.08;41.25;94295.41;5032261;28;19999;-65
2023/03/07 05:19:59;;;;;;;;;;;;;;;12.13;41.36;94287.50;5031387;28;19968;-65
2023/03/07 05:22:27;;;;;;;;;;;;;;;12.23;41.46;94290.00;5028848;28;19983;-66
2023/03/07 05:24:53;;;;;;;;;;;;;;;12.04;41.99;94287.31;5030558;28;19936;-65
2023/03/07 05:27:20;;;;;;;;;;;;;;;12.36;41.03;94280.66;5029465;28;19933;-65
2023/03/07 05:29:47;;;;;;;;;;;;;;;11.93;41.92;94292.94;5031876;28;19921;-65
2023/03/07 05:32:14;;;;;;;;;;;;;;;11.83;42.39;94298.28;5029350;28;19960;-65
2023/03/07 05:34:41;;;;;;;;;;;;;;;11.47;42.88;94304.88;5030128;28;20004;-64
2023/03/07 05:37:08;;;;;;;;;;;;;;;12.21;41.72;94297.38;5029619;28;20031;-64
2023/03/07 05:39:35;;;;;;;;;;;;;;;12.38;41.72;94295.09;5030082;28;19921;-65
2023/03/07 05:42:02;;;;;;;;;;;;;;;12.40;41.68;94292.16;5022089;28;20346;-64
2023/03/07 05:44:29;;;;;;;;;;;;;;;12.61;41.36;94304.78;5018321;28;19938;-66
2023/03/07 05:47:00;;;;;;;;;;;;;;;12.53;41.41;94308.06;5027871;28;19935;-66
2023/03/07 05:49:26;;;;;;;;;;;;;;;12.40;41.79;94303.47;5032085;28;20371;-65
2023/03/07 05:51:53;;;;;;;;;;;;;;;12.49;41.74;94312.28;5018103;28;20426;-66
2023/03/07 05:54:20;;;;;;;;;;;;;;;12.42;41.79;94311.06;5016095;28;19935;-67
2023/03/07 05:56:47;;;;;;;;;;;;;;;12.63;41.39;94313.16;5028947;28;20019;-62
2023/03/07 05:59:14;;;;;;;;;;;;;;;12.62;41.76;94316.88;5029379;28;19948;-67
2023/03/07 06:01:43;;;;;;;;;;;;;;;12.35;42.28;94308.00;5027320;28;20044;-66
2023/03/07 06:04:11;;;;;;;;;;;;;;;12.61;41.78;94304.78;5027657;28;19946;-66
2023/03/07 06:06:37;;;;;;;;;;;;;;;12.66;41.68;94317.09;5029420;28;20387;-66
2023/03/07 06:09:04;;;;;;;;;;;;;;;12.85;41.14;94316.06;5028751;28;20408;-66
2023/03/07 06:11:32;;;;;;;;;;;;;;;12.34;41.76;94320.34;5029024;28;19937;-67
2023/03/07 06:13:59;;;;;;;;;;;;;;;12.03;42.53;94329.59;5030374;28;19934;-66
2023/03/07 06:16:27;;;;;;;;;;;;;;;11.21;43.52;94331.28;5029348;28;19943;-66
2023/03/07 06:18:55;;;;;;;;;;;;;;;12.06;42.50;94321.94;5030828;28;19947;-67
2023/03/07 06:21:22;;;;;;;;;;;;;;;12.28;42.74;94310.94;5028375;28;20032;-66
2023/03/07 06:23:49;;;;;;;;;;;;;;;12.66;41.83;94323.13;5029082;28;20034;-66
2023/03/07 06:26:20;;;;;;;;;;;;;;;13.00;41.56;94313.22;5028935;28;19954;-66
2023/03/07 06:28:50;;;;;;;;;;;;;;;13.06;41.22;94317.34;5028447;28;19988;-68
2023/03/07 06:31:18;;;;;;;;;;;;;;;13.01;41.27;94320.03;5029528;28;20033;-68
2023/03/07 06:33:46;;;;;;;;;;;;;;;13.42;40.85;94324.75;5028265;28;19957;-67
2023/03/07 06:36:16;;;;;;;;;;;;;;;13.52;40.44;94317.47;5027225;28;19948;-65
2023/03/07 06:38:46;;;;;;;;;;;;;;;13.43;40.90;94326.31;5028038;28;19947;-65
2023/03/07 06:41:13;;;;;;;;;;;;;;;13.64;40.18;94322.31;5027793;28;20070;-65
2023/03/07 06:43:40;;;;;;;;;;;;;;;13.79;40.13;94324.69;5028606;28;19939;-66
2023/03/07 06:46:07;;;;;;;;;;;;;;;13.83;39.43;94323.81;5027041;28;19953;-67
2023/03/07 06:48:37;;;;;;;;;;;;;;;14.06;39.25;94330.03;5028260;28;19988;-66
2023/03/07 06:51:09;;;;;;;;;;;;;;;14.19;39.28;94329.28;5027427;28;20415;-66
2023/03/07 06:53:39;;;;;;;;;;;;;;;13.19;40.56;94329.81;5028297;28;19943;-66
2023/03/07 06:56:07;;;;;;;;;;;;;;;13.55;39.91;94337.19;5044698;28;20424;-66
2023/03/07 06:58:34;;;;;;;;;;;;;;;13.77;39.62;94340.00;5028685;28;19983;-65
2023/03/07 07:01:01;;;;;;;;;;;;;;;13.98;39.66;94338.59;5028436;28;19949;-65
2023/03/07 07:03:30;;;;;;;;;;;;;;;13.80;40.18;94337.56;5045278;28;19953;-65
2023/03/07 07:05:56;;;;;;;;;;;;;;;14.02;39.78;94336.94;5029138;28;19941;-64
2023/03/07 07:08:23;;;;;;;;;;;;;;;14.18;39.51;94338.22;5029923;28;20291;-65
2023/03/07 07:10:50;;;;;;;;;;;;;;;14.15;39.86;94331.72;5029239;28;19948;-67
2023/03/07 07:13:18;;;;;;;;;;;;;;;14.27;39.42;94341.78;5028586;28;20408;-65
2023/03/07 07:15:45;;;;;;;;;;;;;;;13.71;40.36;94327.97;5027826;28;20656;-65
2023/03/07 07:18:12;;;;;;;;;;;;;;;14.06;39.61;94335.28;5027686;28;19946;-66
2023/03/07 07:20:41;;;;;;;;;;;;;;;14.12;40.12;94334.16;5027672;28;19941;-65
2023/03/07 07:23:08;;;;;;;;;;;;;;;14.95;38.13;94324.13;5028042;28;19950;-67
2023/03/07 07:25:36;;;;;;;;;;;;;;;15.16;38.12;94324.47;5027264;28;20411;-65
2023/03/07 07:28:03;;;;;;;;;;;;;;;14.89;37.97;94322.66;5029931;28;19953;-65
2023/03/07 07:30:30;;;;;;;;;;;;;;;15.01;37.81;94319.50;5027670;28;19952;-67
2023/03/07 07:32:57;;;;;;;;;;;;;;;15.21;37.58;94325.16;5031004;28;20405;-66
2023/03/07 07:35:25;;;;;;;;;;;;;;;15.10;37.70;94326.44;5033396;28;19949;-66
2023/03/07 07:37:53;;;;;;;;;;;;;;;15.13;38.19;94328.47;5032360;28;19943;-65
2023/03/07 07:40:21;;;;;;;;;;;;;;;15.46;37.23;94329.09;5031930;28;19945;-66
2023/03/07 07:42:53;;;;;;;;;;;;;;;15.76;36.65;94330.25;5032726;28;19945;-67
2023/03/07 07:45:46;;;;;;;;;;;;;;;15.80;37.60;94333.84;5021513;28;19945;-66
2023/03/07 07:48:16;;;;;;;;;;;;;;;15.84;36.67;94330.28;5031745;28;19940;-65
2023/03/07 07:50:45;;;;;;;;;;;;;;;15.98;36.12;94327.59;5030370;28;20692;-65
2023/03/07 07:53:15;;;;;;;;;;;;;;;15.96;36.70;94335.84;5031657;28;20032;-66
2023/03/07 07:55:43;;;;;;;;;;;;;;;16.35;36.41;94332.44;5047649;28;20634;-65
2023/03/07 07:58:10;;;;;;;;;;;;;;;16.28;35.84;94332.09;5033641;28;19970;-66
2023/03/07 08:00:37;;;;;;;;;;;;;;;16.11;37.09;94337.31;5032640;28;20024;-66
2023/03/07 08:03:05;;;;;;;;;;;;;;;16.19;36.61;94329.44;5032821;28;19954;-64
2023/03/07 08:05:32;;;;;;;;;;;;;;;16.10;36.73;94333.09;5032753;28;19984;-67
2023/03/07 08:07:59;;;;;;;;;;;;;;;16.22;36.04;94331.44;5031481;28;19943;-66
2023/03/07 08:10:26;;;;;;;;;;;;;;;16.55;36.00;94337.22;5032008;28;19947;-68
2023/03/07 08:12:52;;;;;;;;;;;;;;;16.38;35.82;94329.22;5032681;28;19996;-65
2023/03/07 08:15:20;;;;;;;;;;;;;;;16.59;35.38;94327.59;5032159;28;19932;-67
2023/03/07 08:17:48;;;;;;;;;;;;;;;16.82;35.50;94331.72;5034006;28;19950;-65
2023/03/07 08:20:14;;;;;;;;;;;;;;;16.87;35.70;94328.16;5034020;28;20309;-67
2023/03/07 08:22:42;;;;;;;;;;;;;;;17.22;34.89;94335.84;5032438;28;20009;-65
2023/03/07 08:25:15;;;;;;;;;;;;;;;17.53;34.68;94324.38;5033584;28;19986;-66
2023/03/07 08:27:42;;;;;;;;;;;;;;;17.35;33.77;94323.56;5031826;28;20039;-67
2023/03/07 08:30:09;;;;;;;;;;;;;;;17.89;33.80;94327.47;5033088;28;19976;-66
2023/03/07 08:32:35;;;;;;;;;;;;;;;18.29;33.01;94325.34;5031449;28;20004;-68
2023/03/07 08:35:02;;;;;;;;;;;;;;;18.16;32.60;94319.16;5032385;28;19934;-67
2023/03/07 08:37:29;;;;;;;;;;;;;;;18.04;32.89;94319.03;5017860;28;19936;-66
2023/03/07 08:39:56;;;;;;;;;;;;;;;17.26;33.29;94314.06;5032501;28;19951;-66
2023/03/07 08:42:22;;;;;;;;;;;;;;;17.27;34.33;94315.59;5031340;28;20357;-66
2023/03/07 08:44:49;;;;;;;;;;;;;;;17.48;33.98;94321.91;5030789;28;19940;-69
2023/03/07 08:47:16;;;;;;;;;;;;;;;17.48;33.90;94321.91;5031719;28;20539;-67
2023/03/07 08:49:43;;;;;;;;;;;;;;;17.03;33.89;94327.41;5030888;28;19938;-67
2023/03/07 08:52:09;;;;;;;;;;;;;;;17.43;33.79;94324.66;5030438;28;20430;-68
2023/03/07 08:54:37;;;;;;;;;;;;;;;17.37;33.04;94320.63;5031977;28;19942;-65
2023/03/07 08:57:04;;;;;;;;;;;;;;;17.62;32.91;94322.50;5032463;28;19990;-67
2023/03/07 08:59:30;;;;;;;;;;;;;;;17.58;33.24;94321.56;5032177;28;19948;-66
2023/03/07 09:01:57;;;;;;;;;;;;;;;17.72;32.38;94316.88;5031005;28;19964;-66
2023/03/07 09:04:24;;;;;;;;;;;;;;;17.86;32.51;94323.56;5031884;28;19936;-68
2023/03/07 09:06:51;;;;;;;;;;;;;;;17.97;32.24;94318.75;5030942;28;20025;-67
2023/03/07 09:09:18;;;;;;;;;;;;;;;18.42;31.99;94313.78;5031500;28;19966;-66
2023/03/07 09:11:44;;;;;;;;;;;;;;;18.34;30.92;94310.03;5031274;28;19975;-67
2023/03/07 09:14:11;;;;;;;;;;;;;;;18.36;30.54;94309.72;5032784;28;19940;-67
2023/03/07 09:16:38;;;;;;;;;;;;;;;18.10;29.81;94313.22;5032039;28;19975;-67
2023/03/07 09:19:05;;;;;;;;;;;;;;;17.97;29.85;94310.78;5031701;28;19952;-66
2023/03/07 09:21:31;;;;;;;;;;;;;;;18.12;30.48;94304.97;5031205;28;19941;-67
2023/03/07 09:23:58;;;;;;;;;;;;;;;18.80;30.30;94299.44;5031039;28;20459;-67
2023/03/07 09:26:25;;;;;;;;;;;;;;;19.13;29.68;94302.97;5031228;28;19943;-67
2023/03/07 09:28:52;;;;;;;;;;;;;;;19.26;28.57;94295.06;5031087;28;20422;-67
2023/03/07 09:31:18;;;;;;;;;;;;;;;19.56;28.54;94284.06;5030862;28;20041;-66
2023/03/07 09:33:45;;;;;;;;;;;;;;;19.71;28.40;94290.66;5031279;28;19976;-66
2023/03/07 09:36:13;;;;;;;;;;;;;;;19.47;27.76;94286.03;5029938;28;19947;-68
2023/03/07 09:38:41;;;;;;;;;;;;;;;19.94;27.52;94278.59;5031294;28;20331;-67
2023/03/07 09:41:07;;;;;;;;;;;;;;;20.37;27.67;94278.13;5030672;28;19949;-65
2023/03/07 09:43:42;;;;;;;;;;;;;;;20.42;27.92;94273.38;5030709;28;19952;-68
2023/03/07 09:46:41;;;;;;;;;;;;;;;20.56;27.60;94268.53;5031084;28;19993;-68
2023/03/07 09:49:26;;;;;;;;;;;;;;;20.33;26.65;94267.38;5031370;28;20298;-66
2023/03/07 09:51:56;;;;;;;;;;;;;;;20.27;26.81;94265.28;5017390;28;19956;-65
2023/03/07 09:54:26;;;;;;;;;;;;;;;20.53;26.28;94269.16;5030778;28;19941;-66
2023/03/07 09:56:57;;;;;;;;;;;;;;;21.01;25.94;94263.88;5031325;28;19964;-66
2023/03/07 09:59:44;;;;;;;;;;;;;;;21.05;25.39;94264.75;5030930;28;20420;-66
2023/03/07 10:02:20;;;;;;;;;;;;;;;20.91;25.79;94261.63;5033188;28;20134;-66
2023/03/07 10:04:50;;;;;;;;;;;;;;;21.53;25.78;94247.09;5022195;28;19952;-67
2023/03/07 10:07:18;;;;;;;;;;;;;;;21.47;24.64;94243.09;5041230;28;19939;-64
2023/03/07 10:09:45;;;;;;;;;;;;;;;21.29;24.27;94239.16;5043526;28;19941;-64
2023/03/07 10:12:17;;;;;;;;;;;;;;;20.70;24.20;94241.56;5041003;28;19949;-66
2023/03/07 10:14:57;;;;;;;;;;;;;;;19.98;25.56;94237.69;5034021;28;19951;-65
2023/03/07 10:17:34;;;;;;;;;;;;;;;20.93;25.90;94229.31;5031372;28;19966;-66
2023/03/07 10:20:16;;;;;;;;;;;;;;;20.92;25.64;94225.13;5031615;28;19970;-68
2023/03/07 10:22:54;;;;;;;;;;;;;;;20.51;25.65;94217.41;5018714;28;20054;-68
2023/03/07 10:25:24;;;;;;;;;;;;;;;21.02;26.14;94217.47;5031035;28;20007;-68
2023/03/07 10:27:53;;;;;;;;;;;;;;;21.17;26.04;94212.56;5018095;28;20322;-67
2023/03/07 10:30:20;;;;;;;;;;;;;;;21.55;24.91;94207.53;5029605;28;19964;-67
2023/03/07 10:32:48;;;;;;;;;;;;;;;20.69;26.41;94214.16;5029841;28;20485;-66
2023/03/07 10:35:19;;;;;;;;;;;;;;;21.17;25.93;94201.91;5030321;28;19951;-69
2023/03/07 10:37:49;;;;;;;;;;;;;;;21.63;25.58;94199.38;5029875;28;20059;-67
2023/03/07 10:40:35;;;;;;;;;;;;;;;22.03;25.21;94199.28;5029987;28;20441;-67
2023/03/07 10:43:03;;;;;;;;;;;;;;;21.95;24.75;94198.31;5029925;28;19958;-66
2023/03/07 10:45:31;;;;;;;;;;;;;;;21.48;23.99;94188.66;5017377;28;19948;-63
2023/03/07 10:48:05;;;;;;;;;;;;;;;20.42;24.86;94188.22;5029482;28;19945;-67
2023/03/07 10:50:51;;;;;;;;;;;;;;;19.67;25.61;94181.56;5029482;28;19957;-67
2023/03/07 10:53:23;;;;;;;;;;;;;;;18.91;26.54;94188.31;5030254;28;19959;-67
2023/03/07 10:55:51;;;;;;;;;;;;;;;19.86;25.22;94175.75;5029678;28;19959;-66
2023/03/07 10:58:20;;;;;;;;;;;;;;;20.35;25.34;94161.41;5030428;28;19941;-66
2023/03/07 11:01:05;;;;;;;;;;;;;;;20.08;24.65;94165.47;5029311;28;20496;-64
2023/03/07 11:03:39;;;;;;;;;;;;;;;19.12;25.88;94171.28;5028658;28;20015;-66
2023/03/07 11:06:38;;;;;;;;;;;;;;;20.26;24.81;94157.28;5016364;28;19947;-69
2023/03/07 11:09:16;;;;;;;;;;;;;;;20.26;24.68;94146.66;5029784;28;19942;-67
2023/03/07 11:11:47;;;;;;;;;;;;;;;20.87;25.20;94146.25;5029215;28;19954;-65
2023/03/07 11:14:14;;;;;;;;;;;;;;;21.15;25.36;94135.63;5029427;28;19947;-64
2023/03/07 11:16:46;;;;;;;;;;;;;;;20.60;24.22;94135.53;5029175;28;19973;-67
2023/03/07 11:19:25;;;;;;;;;;;;;;;20.56;24.22;94130.13;5016728;28;19955;-65
2023/03/07 11:21:53;;;;;;;;;;;;;;;20.51;24.08;94122.34;5029323;28;19998;-69
2023/03/07 11:24:27;;;;;;;;;;;;;;;20.42;23.93;94119.03;5029851;28;19957;-67
2023/03/07 11:26:55;;;;;;;;;;;;;;;20.74;23.67;94112.78;5029458;28;19954;-67
2023/03/07 11:29:23;;;;;;;;;;;;;;;21.02;24.37;94097.59;5031514;28;19940;-65
2023/03/07 11:32:16;;;;;;;;;;;;;;;20.91;24.58;94096.50;5029231;28;20041;-66
2023/03/07 11:34:58;;;;;;;;;;;;;;;20.90;24.31;94102.94;5029828;28;20286;-65
2023/03/07 11:37:27;;;;;;;;;;;;;;;20.67;24.30;94093.94;5028785;28;20035;-66
2023/03/07 11:40:02;;;;;;;;;;;;;;;20.75;24.05;94095.69;5028515;28;20008;-66
2023/03/07 11:42:36;;;;;;;;;;;;;;;20.43;23.69;94094.00;5017203;28;19976;-69
2023/03/07 11:45:14;;;;;;;;;;;;;;;20.80;24.08;94092.75;5030798;28;19951;-67
2023/03/07 11:47:56;;;;;;;;;;;;;;;21.01;23.71;94087.28;5030711;28;19944;-67
2023/03/07 11:50:25;;;;;;;;;;;;;;;20.96;23.94;94080.31;5029154;28;19942;-67
2023/03/07 11:52:55;;;;;;;;;;;;;;;21.01;23.95;94082.75;5029109;28;20333;-67
2023/03/07 11:55:54;;;;;;;;;;;;;;;20.81;24.27;94035.75;5029294;28;20006;-66
2023/03/07 11:58:31;;;;;;;;;;;;;;;21.38;24.25;94075.34;5025376;28;19961;-66
2023/03/07 12:00:58;;;;;;;;;;;;;;;21.39;23.70;94076.88;5028711;28;19993;-67
2023/03/07 12:03:47;;;;;;;;;;;;;;;21.28;24.22;94070.50;5029154;28;20319;-66
2023/03/07 12:06:27;;;;;;;;;;;;;;;21.23;23.88;94077.97;5028509;28;19945;-65
2023/03/07 12:09:13;;;;;;;;;;;;;;;20.96;22.43;94074.97;5029067;28;19951;-65
2023/03/07 12:11:58;;;;;;;;;;;;;;;21.54;23.14;94067.34;5028643;28;19950;-67
2023/03/07 12:14:24;;;;;;;;;;;;;;;20.86;23.12;94070.13;5028867;28;19946;-65
2023/03/07 12:17:00;;;;;;;;;;;;;;;21.13;22.28;94064.03;5028698;28;20002;-67
2023/03/07 12:19:33;;;;;;;;;;;;;;;21.05;21.38;94058.88;5030292;28;20040;-68
2023/03/07 12:22:18;;;;;;;;;;;;;;;20.70;21.35;94055.19;5031739;28;19974;-66
2023/03/07 12:24:50;;;;;;;;;;;;;;;20.51;21.36;94058.47;5032605;28;19956;-65
2023/03/07 12:27:22;;;;;;;;;;;;;;;20.34;21.07;94053.44;5032136;28;19941;-69
2023/03/07 12:30:24;;;;;;;;;;;;;;;21.00;20.59;94065.19;5032461;28;20387;-69
2023/03/07 12:32:51;;;;;;;;;;;;;;;19.48;21.51;94068.94;5030236;28;19948;-69
2023/03/07 12:35:23;;;;;;;;;;;;;;;18.97;22.26;94060.41;5032751;28;20613;-65
2023/03/07 12:38:13;;;;;;;;;;;;;;;19.90;21.98;94060.44;5033115;28;19946;-66
2023/03/07 12:40:41;;;;;;;;;;;;;;;20.38;21.13;94058.84;5032452;28;19950;-71
2023/03/07 12:43:17;;;;;;;;;;;;;;;19.50;21.89;94048.13;5032149;28;20464;-67
2023/03/07 12:46:05;;;;;;;;;;;;;;;19.51;22.29;94052.31;5031933;28;19954;-68
2023/03/07 12:48:53;;;;;;;;;;;;;;;18.94;22.90;94047.75;5030924;28;19971;-68
2023/03/07 12:51:35;;;;;;;;;;;;;;;19.54;22.31;94057.00;5031924;28;19994;-65
2023/03/07 12:54:13;;;;;;;;;;;;;;;19.32;22.32;94049.44;5032477;28;19948;-69
2023/03/07 12:56:46;;;;;;;;;;;;;;;19.37;22.01;94041.25;5031407;28;19946;-67
2023/03/07 12:59:15;;;;;;;;;;;;;;;19.89;21.57;94029.63;5031652;28;20414;-67
2023/03/07 13:01:46;;;;;;;;;;;;;;;20.07;21.15;94043.47;5031993;28;20047;-66